• Join FlightAware (Why Join?)
  • Login
  • US Flag 
06:41AM EDT


 

Airport Tracker/Info


-or-


 

Live Flight TrackerFlight Track Log ✈ UAL395 ✈ 14-Aug-2013 ✈ KBOS - KEWR

Flight Track Log - Related Links

Times and Time Zones

All times are in EDT time to prevent confusion due to time zone crossing. See the UAL395 flight status page for this flight to view local times or setup timezone preferences in your user account.

Time Position Orientation Groundspeed Altitude Reporting Facility
EDT Latitude Longitude Course Direction KTS MPH feet Rate Location/Type
11:44AM 42.3500 -71.0167 240° Southwest 145 167 800  Level KA90
11:45AM 42.3333 -71.0667 246° West 200 230 3,200 2,580 Climbing KA90
11:46AM 42.4142 -70.7500 180° South  Level FlightAware Approximate
11:46AM 42.2639 -71.1525 222° Southwest 221 254 7,100  Level Boston Center
11:47AM 42.3342 -70.7235 172° South  Level FlightAware Approximate
11:47AM 42.2442 -71.2453 254° West 239 275 11,100  Level Boston Center
11:48AM 42.2666 -70.7668 228° Southwest  Level FlightAware Approximate
11:48AM 42.2222 -71.3494 254° West 274 315 12,400  Level Boston Center
11:49AM 42.2159 -70.8574 240° Southwest  Level FlightAware Approximate
11:49AM 42.1961 -71.4761 254° West 333 383 15,400  Level Boston Center
11:50AM 42.1742 -71.5828 255° West 338 389 16,000 240 Climbing Boston Center
11:51AM 42.1500 -71.7008 255° West 333 383 16,000  Level Boston Center
11:52AM 42.1236 -71.8300 255° West 333 383 16,000  Level Boston Center
11:53AM 42.0992 -71.9392 253° West 333 383 16,100  Climbing Boston Center
11:54AM 42.0725 -72.0708 255° West 333 383 16,100  Level Boston Center
11:55AM 42.0500 -72.1772 254° West 333 383 16,100  Level Boston Center
11:56AM 42.0231 -72.3031 254° West 333 383 16,100  Level Boston Center
11:57AM 42.0003 -72.4094 254° West 333 383 16,100  Level Boston Center
11:58AM 41.9731 -72.5406 254° West 333 383 16,100  Level Boston Center
11:59AM 41.9500 -72.6467 254° West 333 383 16,100  Level Boston Center
12:00PM 41.9289 -72.7414 253° West 333 383 16,100  Level Boston Center
12:01PM 41.8953 -72.8808 252° West 333 383 16,100  Level Boston Center
12:02PM 41.8675 -73.0061 253° West 333 383 16,100  Level Boston Center
12:03PM 41.8397 -73.1200 252° West 333 383 16,100  Level Boston Center
12:04PM 41.8056 -73.2617 252° West 328 377 16,100  Level Boston Center
12:05PM 41.7756 -73.3753 251° West 328 377 16,100 -60 Level Boston Center
12:06PM 41.7517 -73.4781 253° West 328 377 16,000 -660 Descending Boston Center
12:07PM 41.7214 -73.6028 252° West 323 372 14,900 -1,020 Descending Boston Center
12:08PM 41.6953 -73.7022 251° West 323 372 14,000 -1,020 Descending Boston Center
12:09PM 41.6689 -73.8158 253° West 311 358 12,900 -1,440 Descending Boston Center
12:10PM 41.6511 -73.9097 256° West 294 338 11,200 -1,500 Descending Boston Center
12:11PM 41.6453 -74.0153 266° West 275 316 10,000 -1,320 Descending Boston Center
12:12PM 41.6028 -74.0864 231° Southwest 262 302 8,600 -1,440 Descending Boston Center
12:13PM 41.5536 -74.1656 230° Southwest 278 320 7,100 -840 Descending Boston Center
12:14PM 41.5000 -74.2528 231° Southwest 284 327 7,000 -60 Descending Boston Center
12:16PM 41.4000 -74.3500 216° Southwest 281 323 7,000  Level New York TRACON
12:17PM 41.3167 -74.4167 211° Southwest 284 327 7,000  Level New York TRACON
12:18PM 41.2667 -74.4500 207° Southwest 284 327 7,000 -360 Level New York TRACON
12:19PM 41.2000 -74.4833 201° Southwest 288 331 6,400 -1,020 Descending New York TRACON
12:20PM 41.1000 -74.5167 194° South 291 335 5,000 -720 Descending New York TRACON
12:21PM 41.0333 -74.5500 201° Southwest 290 334 5,000  Level New York TRACON
12:22PM 40.9500 -74.5500 180° South 290 334 5,000  Level New York TRACON
12:23PM 40.8667 -74.5667 189° South 295 339 5,000  Level New York TRACON
12:24PM 40.8000 -74.5667 180° South 289 333 5,000  Level New York TRACON
12:25PM 40.7167 -74.5833 189° South 291 335 5,000  Level New York TRACON
12:26PM 40.6333 -74.5333 156° South 295 339 5,000  Level New York TRACON
12:27PM 40.5667 -74.5000 159° South 293 337 5,100 -420 Climbing New York TRACON
12:28PM 40.5000 -74.4333 143° Southeast 295 339 4,200 -840 Descending New York TRACON
12:29PM 40.4667 -74.3500 118° Southeast 251 289 3,500 -600 Descending New York TRACON
12:30PM 40.5000 -74.2833 57° Northeast 193 222 3,000 -240 Descending New York TRACON
12:31PM 40.5333 -74.2667 21° North 184 212 3,000 -480 Level New York TRACON
12:32PM 40.5833 -74.2333 27° Northeast 182 209 2,200 -900 Descending New York TRACON
12:33PM 40.6333 -74.2000 27° Northeast 171 197 1,200 -900 Descending New York TRACON
12:34PM 40.6667 -74.1833 21° North 134 154 400 -840 Descending New York TRACON